Time;durP1;ratioP1;P1;durP2;ratioP2;P2;SDS_P1;SDS_P2;PMS_P1;PMS_P2;Temp;Humidity;BMP_temperature;BMP_pressure;BME280_temperature;BME280_humidity;BME280_pressure;Samples;Min_cycle;Max_cycle;Signal;HPM_P1;HPM_P2
2022/05/03 00:00:42;;;;;;;20.25;11.05;;;;;;;;;;5040597;28;20077;-81
2022/05/03 00:03:14;;;;;;;41.80;11.40;;;;;;;;;;5053276;28;20148;-81
2022/05/03 00:05:59;;;;;;;23.30;10.10;;;;;;;;;;5052177;28;20537;-81
2022/05/03 00:08:43;;;;;;;16.48;9.77;;;;;;;;;;5052198;28;20049;-81
2022/05/03 00:11:16;;;;;;;23.33;10.88;;;;;;;;;;5050314;28;20095;-81
2022/05/03 00:13:46;;;;;;;20.05;10.88;;;;;;;;;;5051423;28;20053;-81
2022/05/03 00:16:14;;;;;;;22.55;11.18;;;;;;;;;;5051088;28;20134;-82
2022/05/03 00:18:42;;;;;;;21.23;10.02;;;;;;;;;;5052600;28;20098;-81
2022/05/03 00:21:11;;;;;;;20.83;10.68;;;;;;;;;;5051149;28;20053;-81
2022/05/03 00:23:38;;;;;;;23.50;10.05;;;;;;;;;;5050888;28;20132;-81
2022/05/03 00:26:06;;;;;;;21.80;10.32;;;;;;;;;;5051484;28;20049;-81
2022/05/03 00:28:34;;;;;;;17.17;9.35;;;;;;;;;;5052722;28;20140;-81
2022/05/03 00:31:01;;;;;;;17.40;9.32;;;;;;;;;;5052079;28;20063;-81
2022/05/03 00:33:30;;;;;;;20.27;10.32;;;;;;;;;;5052264;28;20057;-81
2022/05/03 00:35:57;;;;;;;17.13;9.43;;;;;;;;;;5051815;28;20052;-81
2022/05/03 00:38:24;;;;;;;20.35;10.10;;;;;;;;;;5049836;28;20136;-81
2022/05/03 00:40:58;;;;;;;29.23;9.40;;;;;;;;;;5051543;28;20075;-81
2022/05/03 00:43:37;;;;;;;18.30;9.30;;;;;;;;;;5050279;28;20484;-81
2022/05/03 00:46:16;;;;;;;22.05;9.52;;;;;;;;;;5050058;28;20076;-81
2022/05/03 00:48:51;;;;;;;18.55;9.70;;;;;;;;;;5051162;28;20795;-80
2022/05/03 00:51:25;;;;;;;16.40;8.77;;;;;;;;;;5051378;28;20088;-81
2022/05/03 00:54:09;;;;;;;18.77;9.93;;;;;;;;;;5051522;28;20146;-80
2022/05/03 00:56:45;;;;;;;20.80;8.80;;;;;;;;;;5052399;28;20497;-80
2022/05/03 00:59:31;;;;;;;17.33;9.30;;;;;;;;;;5050466;28;20052;-81
2022/05/03 01:02:05;;;;;;;23.50;9.63;;;;;;;;;;5051170;28;20084;-81
2022/05/03 01:04:41;;;;;;;18.38;10.50;;;;;;;;;;5051052;28;20083;-81
2022/05/03 01:07:14;;;;;;;18.85;10.20;;;;;;;;;;5051212;28;20148;-81
2022/05/03 01:09:50;;;;;;;23.27;11.85;;;;;;;;;;5046366;28;20087;-81
2022/05/03 01:12:24;;;;;;;19.35;10.40;;;;;;;;;;5041441;22;20136;-81
2022/05/03 01:15:10;;;;;;;18.60;9.68;;;;;;;;;;5013338;28;20088;-81
2022/05/03 01:17:44;;;;;;;15.40;9.63;;;;;;;;;;5029794;28;20111;-82
2022/05/03 01:20:15;;;;;;;19.92;10.43;;;;;;;;;;5038663;28;20529;-82
2022/05/03 01:22:54;;;;;;;25.73;10.30;;;;;;;;;;5049307;28;20080;-81
2022/05/03 01:25:40;;;;;;;21.75;10.48;;;;;;;;;;5049380;28;20076;-81
2022/05/03 01:28:23;;;;;;;24.50;10.20;;;;;;;;;;5018638;28;20100;-81
2022/05/03 01:30:51;;;;;;;32.70;10.73;;;;;;;;;;5041975;28;20048;-81
2022/05/03 01:33:19;;;;;;;23.90;9.45;;;;;;;;;;5023087;28;20092;-81
2022/05/03 01:35:50;;;;;;;20.08;9.48;;;;;;;;;;5039526;28;20087;-81
2022/05/03 01:38:36;;;;;;;24.70;9.63;;;;;;;;;;5030246;28;20146;-81
2022/05/03 01:41:25;;;;;;;21.08;8.32;;;;;;;;;;5043350;28;20072;-81
2022/05/03 01:44:08;;;;;;;15.23;8.60;;;;;;;;;;5036296;28;20077;-81
2022/05/03 01:46:36;;;;;;;15.23;9.02;;;;;;;;;;5030234;28;20053;-80
2022/05/03 01:52:03;;;;;;;23.17;10.40;;;;;;;;;;5049362;28;20102;-80
2022/05/03 01:54:57;;;;;;;18.52;8.50;;;;;;;;;;5046257;28;20112;-80
2022/05/03 01:57:43;;;;;;;17.40;8.57;;;;;;;;;;5009793;28;20135;-80
2022/05/03 02:00:11;;;;;;;19.65;8.88;;;;;;;;;;5038577;28;20133;-80
2022/05/03 02:02:44;;;;;;;15.38;8.50;;;;;;;;;;5049223;28;20049;-80
2022/05/03 02:05:20;;;;;;;13.65;7.93;;;;;;;;;;5050173;28;20159;-80
2022/05/03 02:07:55;;;;;;;18.95;8.52;;;;;;;;;;5050044;28;20093;-80
2022/05/03 02:10:38;;;;;;;15.70;8.57;;;;;;;;;;5029208;28;20053;-80
2022/05/03 02:13:21;;;;;;;13.80;7.93;;;;;;;;;;5050210;28;20092;-80
2022/05/03 02:15:50;;;;;;;17.63;7.75;;;;;;;;;;5047426;28;20888;-80
2022/05/03 02:18:27;;;;;;;12.25;7.78;;;;;;;;;;5034952;28;20097;-80
2022/05/03 02:21:13;;;;;;;13.35;6.40;;;;;;;;;;5032218;28;20098;-80
2022/05/03 02:23:59;;;;;;;10.77;6.03;;;;;;;;;;5049999;28;20088;-80
2022/05/03 02:26:39;;;;;;;12.05;6.68;;;;;;;;;;5046349;28;20060;-80
2022/05/03 02:29:35;;;;;;;15.35;6.75;;;;;;;;;;5044950;28;20132;-80
2022/05/03 02:32:09;;;;;;;10.95;6.47;;;;;;;;;;5008481;28;20131;-80
2022/05/03 02:34:43;;;;;;;10.10;5.38;;;;;;;;;;5031950;28;20605;-80
2022/05/03 02:37:14;;;;;;;19.02;6.10;;;;;;;;;;5035952;28;20081;-81
2022/05/03 02:39:52;;;;;;;11.63;6.93;;;;;;;;;;5012349;28;20546;-81
2022/05/03 02:42:22;;;;;;;15.38;7.80;;;;;;;;;;5029905;28;20068;-81
2022/05/03 02:44:50;;;;;;;14.68;8.15;;;;;;;;;;5028221;28;20077;-82
2022/05/03 02:47:23;;;;;;;19.00;8.60;;;;;;;;;;5045072;28;20091;-81
2022/05/03 02:50:04;;;;;;;16.45;7.80;;;;;;;;;;5030412;28;20546;-81
2022/05/03 02:56:08;;;;;;;17.92;7.43;;;;;;;;;;5041924;28;20713;-75
2022/05/03 02:58:51;;;;;;;22.65;7.18;;;;;;;;;;5042570;28;20470;-74
2022/05/03 03:04:04;;;;;;;14.57;7.07;;;;;;;;;;5024383;28;20053;-74
2022/05/03 03:06:33;;;;;;;17.98;7.60;;;;;;;;;;5033643;28;20075;-74
2022/05/03 03:09:03;;;;;;;16.10;7.55;;;;;;;;;;5042689;28;20045;-74
2022/05/03 03:11:33;;;;;;;14.00;7.25;;;;;;;;;;5041960;28;20098;-74
2022/05/03 03:14:10;;;;;;;25.02;7.82;;;;;;;;;;5043504;28;20091;-74
2022/05/03 03:16:47;;;;;;;19.65;8.02;;;;;;;;;;5038414;28;20053;-74
2022/05/03 03:19:29;;;;;;;18.90;8.23;;;;;;;;;;5038779;28;20065;-81
2022/05/03 03:21:58;;;;;;;13.73;7.13;;;;;;;;;;5029709;28;20076;-82
2022/05/03 03:24:26;;;;;;;17.98;8.32;;;;;;;;;;5028900;28;20498;-74
2022/05/03 03:26:55;;;;;;;18.08;7.57;;;;;;;;;;5041761;28;20445;-74
2022/05/03 03:29:22;;;;;;;12.93;7.47;;;;;;;;;;5042658;28;20095;-74
2022/05/03 03:31:50;;;;;;;18.02;7.97;;;;;;;;;;5047020;28;20049;-74
2022/05/03 03:34:19;;;;;;;14.38;7.50;;;;;;;;;;5046679;28;20057;-74
2022/05/03 03:36:50;;;;;;;16.10;7.55;;;;;;;;;;5046650;28;20826;-74
2022/05/03 03:39:17;;;;;;;19.35;8.00;;;;;;;;;;5046677;28;20816;-74
2022/05/03 03:41:47;;;;;;;20.38;8.30;;;;;;;;;;5045969;28;20625;-74
2022/05/03 03:44:14;;;;;;;17.98;7.57;;;;;;;;;;5046322;28;20126;-74
2022/05/03 03:46:41;;;;;;;20.75;8.32;;;;;;;;;;5045511;28;20055;-74
2022/05/03 03:49:09;;;;;;;17.52;8.02;;;;;;;;;;5045357;28;20199;-74
2022/05/03 03:51:37;;;;;;;16.55;8.00;;;;;;;;;;5043715;28;20088;-74
2022/05/03 03:54:06;;;;;;;21.23;8.48;;;;;;;;;;5045893;28;20125;-74
2022/05/03 03:56:34;;;;;;;18.92;8.68;;;;;;;;;;5044487;28;20088;-74
2022/05/03 03:59:10;;;;;;;19.45;8.05;;;;;;;;;;5046633;28;20067;-74
2022/05/03 04:01:38;;;;;;;15.55;7.63;;;;;;;;;;5050708;28;20076;-81
2022/05/03 04:09:33;;;;;;;30.50;7.88;;;;;;;;;;5048700;28;19924;-81
2022/05/03 04:12:04;;;;;;;21.30;7.35;;;;;;;;;;5049180;28;20076;-81
2022/05/03 04:20:20;;;;;;;14.90;7.78;;;;;;;;;;5129116;23;20056;-74
2022/05/03 04:25:45;;;;;;;15.40;6.80;;;;;;;;;;4986516;28;20136;-74
2022/05/03 04:28:22;;;;;;;13.40;7.45;;;;;;;;;;4970181;28;20152;-74
2022/05/03 04:30:50;;;;;;;13.27;6.72;;;;;;;;;;4986201;28;20104;-74
2022/05/03 04:33:17;;;;;;;13.35;6.38;;;;;;;;;;4969427;28;20074;-74
2022/05/03 04:35:47;;;;;;;10.43;6.50;;;;;;;;;;4986530;28;20055;-74
2022/05/03 04:38:14;;;;;;;13.45;6.45;;;;;;;;;;4986779;28;20078;-74
2022/05/03 04:40:42;;;;;;;18.27;6.57;;;;;;;;;;4988555;28;20176;-81
2022/05/03 04:43:09;;;;;;;10.73;5.88;;;;;;;;;;4974068;28;20145;-81
2022/05/03 04:45:36;;;;;;;10.52;5.72;;;;;;;;;;4990595;28;20109;-81
2022/05/03 04:48:03;;;;;;;12.77;6.38;;;;;;;;;;4991347;28;20518;-81
2022/05/03 04:50:31;;;;;;;14.23;5.30;;;;;;;;;;4989787;28;20649;-81
2022/05/03 04:52:58;;;;;;;8.95;5.57;;;;;;;;;;4987733;28;20593;-81
2022/05/03 04:55:25;;;;;;;16.00;6.13;;;;;;;;;;4988880;28;20105;-80
2022/05/03 04:57:53;;;;;;;10.07;5.97;;;;;;;;;;4988937;28;20174;-81
2022/05/03 05:00:20;;;;;;;37.97;7.07;;;;;;;;;;4987739;28;20074;-80
2022/05/03 05:02:48;;;;;;;15.02;6.38;;;;;;;;;;4991214;28;20038;-80
2022/05/03 05:05:15;;;;;;;15.75;6.15;;;;;;;;;;4990854;28;20043;-80
2022/05/03 05:07:42;;;;;;;13.85;6.75;;;;;;;;;;4991130;28;20133;-81
2022/05/03 05:10:24;;;;;;;19.23;6.35;;;;;;;;;;4990337;28;20137;-78
2022/05/03 05:12:52;;;;;;;12.27;7.00;;;;;;;;;;4985384;28;20058;-76
2022/05/03 05:15:19;;;;;;;12.18;7.28;;;;;;;;;;4984469;28;20198;-74
2022/05/03 05:17:46;;;;;;;11.23;7.53;;;;;;;;;;4986473;28;20050;-75
2022/05/03 05:20:13;;;;;;;28.15;6.97;;;;;;;;;;4984665;28;20125;-74
2022/05/03 05:22:42;;;;;;;17.52;6.45;;;;;;;;;;4986759;28;20162;-75
2022/05/03 05:25:27;;;;;;;18.13;6.93;;;;;;;;;;4985845;28;20419;-75
2022/05/03 05:27:54;;;;;;;14.18;6.75;;;;;;;;;;4984593;28;20412;-76
2022/05/03 05:30:22;;;;;;;17.60;6.88;;;;;;;;;;4985374;28;20082;-75
2022/05/03 05:32:49;;;;;;;12.30;7.38;;;;;;;;;;4986260;28;20116;-76
2022/05/03 05:35:16;;;;;;;13.90;6.00;;;;;;;;;;4985314;28;20167;-74
2022/05/03 05:37:45;;;;;;;14.10;6.20;;;;;;;;;;4985607;28;20116;-74
2022/05/03 05:40:12;;;;;;;18.02;7.05;;;;;;;;;;4985462;28;20832;-75
2022/05/03 05:42:40;;;;;;;15.25;6.93;;;;;;;;;;4985642;28;20096;-74
2022/05/03 05:45:07;;;;;;;13.40;5.88;;;;;;;;;;4986196;28;20476;-74
2022/05/03 05:47:34;;;;;;;11.32;5.75;;;;;;;;;;4984947;28;20787;-75
2022/05/03 05:50:01;;;;;;;11.27;7.25;;;;;;;;;;4987587;28;20078;-79
2022/05/03 05:55:28;;;;;;;14.27;7.60;;;;;;;;;;4943913;28;20140;-79
2022/05/03 05:57:55;;;;;;;27.42;8.63;;;;;;;;;;4969764;28;20140;-79
2022/05/03 06:00:23;;;;;;;16.77;7.70;;;;;;;;;;4986302;28;20050;-78
2022/05/03 06:02:50;;;;;;;15.45;8.10;;;;;;;;;;4986776;28;20138;-79
2022/05/03 06:05:17;;;;;;;17.00;8.18;;;;;;;;;;4986687;28;20850;-78
2022/05/03 06:07:44;;;;;;;15.18;8.13;;;;;;;;;;4969182;28;20133;-79
2022/05/03 06:10:12;;;;;;;20.17;7.88;;;;;;;;;;4986391;28;20050;-79
2022/05/03 06:12:39;;;;;;;23.92;8.43;;;;;;;;;;4986096;28;20164;-79
2022/05/03 06:15:06;;;;;;;22.52;8.35;;;;;;;;;;4987330;28;20145;-78
2022/05/03 06:17:33;;;;;;;23.63;8.23;;;;;;;;;;4988051;28;20662;-79
2022/05/03 06:20:01;;;;;;;14.20;7.72;;;;;;;;;;4987953;28;20074;-79
2022/05/03 06:22:28;;;;;;;20.75;7.85;;;;;;;;;;4988497;28;20177;-80
2022/05/03 06:24:55;;;;;;;14.95;7.72;;;;;;;;;;4974409;28;20074;-79
2022/05/03 06:27:22;;;;;;;15.15;8.38;;;;;;;;;;4951523;28;20148;-79
2022/05/03 06:29:50;;;;;;;21.00;8.70;;;;;;;;;;4965630;28;20652;-78
2022/05/03 06:32:18;;;;;;;13.27;7.13;;;;;;;;;;4965421;28;20061;-77
2022/05/03 06:37:45;;;;;;;17.23;7.82;;;;;;;;;;5002170;28;20117;-78
2022/05/03 06:40:12;;;;;;;19.83;7.95;;;;;;;;;;5002507;28;20149;-78
2022/05/03 06:42:40;;;;;;;15.70;8.38;;;;;;;;;;5002544;28;20689;-78
2022/05/03 06:45:08;;;;;;;13.45;7.38;;;;;;;;;;5004099;28;20046;-78
2022/05/03 06:47:42;;;;;;;21.70;8.43;;;;;;;;;;5007627;28;20046;-79
2022/05/03 06:50:13;;;;;;;18.58;8.77;;;;;;;;;;5009977;28;20096;-78
2022/05/03 06:52:40;;;;;;;23.58;9.10;;;;;;;;;;5009790;28;20054;-79
2022/05/03 06:55:08;;;;;;;19.30;8.82;;;;;;;;;;5011001;28;20058;-79
2022/05/03 06:57:35;;;;;;;23.35;9.38;;;;;;;;;;5011567;28;20058;-79
2022/05/03 07:00:05;;;;;;;15.75;8.40;;;;;;;;;;5012492;28;20081;-79
2022/05/03 07:02:33;;;;;;;20.33;9.40;;;;;;;;;;5014268;28;20128;-79
2022/05/03 07:05:00;;;;;;;22.75;9.05;;;;;;;;;;5012875;28;20135;-78
2022/05/03 07:07:28;;;;;;;27.63;9.30;;;;;;;;;;5024677;28;20152;-79
2022/05/03 07:09:55;;;;;;;20.85;8.43;;;;;;;;;;5011946;28;20096;-75
2022/05/03 07:12:23;;;;;;;19.42;8.90;;;;;;;;;;5007459;28;20089;-75
2022/05/03 07:14:50;;;;;;;22.00;8.63;;;;;;;;;;5009059;28;20239;-75
2022/05/03 07:22:50;;;;;;;18.48;9.30;;;;;;;;;;5028774;28;20122;-75
2022/05/03 07:25:18;;;;;;;19.00;9.07;;;;;;;;;;5018290;28;20143;-76
2022/05/03 07:27:48;;;;;;;20.40;9.77;;;;;;;;;;5025987;28;20130;-75
2022/05/03 07:30:16;;;;;;;17.70;9.95;;;;;;;;;;5027921;28;20143;-75
2022/05/03 07:32:43;;;;;;;27.48;9.27;;;;;;;;;;5027930;28;20049;-75
2022/05/03 07:35:11;;;;;;;21.70;9.38;;;;;;;;;;5020417;28;20075;-76
2022/05/03 07:37:40;;;;;;;22.50;10.40;;;;;;;;;;5010558;28;20140;-75
2022/05/03 07:40:08;;;;;;;19.55;9.57;;;;;;;;;;5008705;28;20046;-75
2022/05/03 07:42:35;;;;;;;24.40;11.55;;;;;;;;;;5009366;28;20046;-73
2022/05/03 07:45:03;;;;;;;26.42;12.80;;;;;;;;;;5015393;28;20041;-74
2022/05/03 07:47:30;;;;;;;39.08;14.30;;;;;;;;;;5011204;28;20155;-74
2022/05/03 07:49:57;;;;;;;28.33;11.73;;;;;;;;;;5008195;28;20132;-73
2022/05/03 07:52:24;;;;;;;34.00;12.80;;;;;;;;;;5007930;28;20077;-74
2022/05/03 07:54:52;;;;;;;40.47;13.85;;;;;;;;;;5013446;28;20038;-73
2022/05/03 07:57:19;;;;;;;35.53;13.05;;;;;;;;;;5027349;28;20162;-74
2022/05/03 07:59:46;;;;;;;34.75;14.60;;;;;;;;;;5026530;28;20463;-73
2022/05/03 08:02:14;;;;;;;28.98;13.57;;;;;;;;;;5028314;28;20131;-74
2022/05/03 08:04:41;;;;;;;26.90;13.10;;;;;;;;;;5024576;28;20034;-74
2022/05/03 08:07:09;;;;;;;33.70;12.85;;;;;;;;;;5008658;28;20882;-74
2022/05/03 08:09:36;;;;;;;29.90;14.27;;;;;;;;;;5008139;28;20081;-74
2022/05/03 08:12:04;;;;;;;41.05;14.00;;;;;;;;;;5002781;28;20121;-74
2022/05/03 08:14:31;;;;;;;27.08;13.50;;;;;;;;;;4990668;28;20086;-73
2022/05/03 08:17:00;;;;;;;25.02;12.63;;;;;;;;;;5007976;28;20062;-73
2022/05/03 08:19:28;;;;;;;35.20;14.60;;;;;;;;;;5006715;28;20131;-73
2022/05/03 08:21:56;;;;;;;34.38;14.73;;;;;;;;;;5026759;28;20061;-73
2022/05/03 08:24:24;;;;;;;34.00;13.82;;;;;;;;;;5024003;28;20046;-73
2022/05/03 08:26:52;;;;;;;28.88;15.10;;;;;;;;;;5003854;28;20120;-74
2022/05/03 08:29:19;;;;;;;29.58;13.35;;;;;;;;;;4987681;28;20491;-74
2022/05/03 08:31:47;;;;;;;30.90;13.55;;;;;;;;;;5002214;28;20136;-72
2022/05/03 08:34:14;;;;;;;39.92;16.35;;;;;;;;;;5006866;28;20074;-72
2022/05/03 08:42:01;;;;;;;40.03;16.48;;;;;;;;;;5026336;28;20591;-74
2022/05/03 08:45:50;;;;;;;36.05;14.88;;;;;;;;;;5082847;22;20071;-79
2022/05/03 08:48:24;;;;;;;31.80;14.15;;;;;;;;;;5067950;28;20079;-79
2022/05/03 08:50:55;;;;;;;29.20;14.80;;;;;;;;;;5042533;23;20131;31
2022/05/03 08:53:24;;;;;;;36.47;14.77;;;;;;;;;;5055890;22;20041;-73
2022/05/03 08:55:57;;;;;;;30.08;14.98;;;;;;;;;;5057893;22;20478;-79
2022/05/03 08:58:25;;;;;;;38.80;15.25;;;;;;;;;;5068026;22;20040;-74
2022/05/03 09:00:52;;;;;;;37.38;15.43;;;;;;;;;;5063154;28;20115;-74
2022/05/03 09:03:20;;;;;;;37.00;16.10;;;;;;;;;;5065767;28;20044;-73
2022/05/03 09:05:48;;;;;;;35.97;14.55;;;;;;;;;;5065045;28;20155;-74
2022/05/03 09:08:21;;;;;;;38.17;15.30;;;;;;;;;;5064840;28;20056;-74
2022/05/03 09:10:49;;;;;;;42.72;15.93;;;;;;;;;;5063827;28;20057;-73
2022/05/03 09:13:36;;;;;;;34.42;14.88;;;;;;;;;;5063261;28;20647;-74
2022/05/03 09:16:09;;;;;;;43.38;16.13;;;;;;;;;;5047481;28;20175;-78
2022/05/03 09:18:37;;;;;;;37.15;16.20;;;;;;;;;;5066234;28;20094;-76
2022/05/03 09:24:03;;;;;;;38.30;15.75;;;;;;;;;;5067593;28;20137;-79
2022/05/03 09:26:31;;;;;;;44.70;15.45;;;;;;;;;;5051255;28;20131;-76
2022/05/03 09:29:05;;;;;;;34.65;14.90;;;;;;;;;;5065152;28;20102;-76
2022/05/03 09:31:43;;;;;;;30.10;14.80;;;;;;;;;;5063355;28;20127;-76
2022/05/03 09:34:19;;;;;;;34.35;15.40;;;;;;;;;;5036732;28;20053;-76
2022/05/03 09:36:51;;;;;;;31.20;15.82;;;;;;;;;;5056128;28;20164;-76
2022/05/03 09:39:38;;;;;;;36.72;15.60;;;;;;;;;;5064219;28;20131;-76
2022/05/03 09:42:16;;;;;;;37.97;14.85;;;;;;;;;;5052814;28;20063;-76
2022/05/03 09:44:51;;;;;;;30.90;15.18;;;;;;;;;;5046817;28;20084;-76
2022/05/03 09:47:20;;;;;;;32.00;14.70;;;;;;;;;;5055701;28;20509;-76
2022/05/03 09:49:47;;;;;;;30.98;14.77;;;;;;;;;;5052377;28;20059;-76
2022/05/03 09:52:30;;;;;;;32.53;14.98;;;;;;;;;;5046931;28;20048;-76
2022/05/03 09:55:03;;;;;;;35.13;14.38;;;;;;;;;;5054932;28;20095;-76
2022/05/03 09:57:32;;;;;;;43.92;16.48;;;;;;;;;;5045243;28;20049;-76
2022/05/03 10:00:00;;;;;;;31.20;16.27;;;;;;;;;;5048066;28;20045;-77
2022/05/03 10:02:28;;;;;;;32.05;15.85;;;;;;;;;;5064448;28;20055;-75
2022/05/03 10:04:56;;;;;;;35.47;15.07;;;;;;;;;;5044413;28;20130;-76
2022/05/03 10:07:24;;;;;;;29.30;14.55;;;;;;;;;;5028302;28;20072;-76
2022/05/03 10:09:52;;;;;;;29.27;14.88;;;;;;;;;;5043948;28;20131;-76
2022/05/03 10:12:20;;;;;;;27.00;14.18;;;;;;;;;;5060307;28;20064;-76
2022/05/03 10:14:48;;;;;;;28.20;13.18;;;;;;;;;;5064419;28;20102;-76
2022/05/03 10:23:23;;;;;;;24.10;11.98;;;;;;;;;;5063863;28;20052;-77
2022/05/03 10:26:01;;;;;;;21.02;11.07;;;;;;;;;;5043328;28;20045;-74
2022/05/03 10:28:47;;;;;;;18.02;10.43;;;;;;;;;;5036675;28;20076;-73
2022/05/03 10:31:14;;;;;;;17.13;9.65;;;;;;;;;;5061405;28;20048;-73
2022/05/03 10:33:42;;;;;;;20.80;10.25;;;;;;;;;;5060765;28;20045;-73
2022/05/03 10:36:28;;;;;;;22.05;11.38;;;;;;;;;;5044636;28;20152;-72
2022/05/03 10:39:03;;;;;;;16.33;9.77;;;;;;;;;;5052679;28;20072;-73
2022/05/03 10:41:31;;;;;;;16.50;9.60;;;;;;;;;;5057494;28;20667;-73
2022/05/03 10:43:58;;;;;;;18.30;9.73;;;;;;;;;;5058591;28;20048;-73
2022/05/03 10:46:25;;;;;;;16.17;9.23;;;;;;;;;;5068649;28;20048;-73
2022/05/03 10:52:18;;;;;;;17.48;8.15;;;;;;;;;;5011200;28;20052;-75
2022/05/03 10:55:05;;;;;;;17.77;9.02;;;;;;;;;;5007469;28;20383;-74
2022/05/03 10:57:33;;;;;;;14.77;8.27;;;;;;;;;;5008653;28;20085;-78
2022/05/03 11:00:00;;;;;;;13.52;8.07;;;;;;;;;;5017653;28;20107;-78
2022/05/03 11:02:28;;;;;;;15.75;8.18;;;;;;;;;;5023490;28;20788;-80
2022/05/03 11:05:18;;;;;;;14.52;8.38;;;;;;;;;;4998812;28;20056;-80
2022/05/03 11:08:06;;;;;;;16.23;8.63;;;;;;;;;;5029500;28;20041;-76
2022/05/03 11:10:40;;;;;;;19.52;8.63;;;;;;;;;;4994941;28;20089;-77
2022/05/03 11:16:35;;;;;;;16.58;8.88;;;;;;;;;;5004959;28;20069;-74
2022/05/03 11:19:09;;;;;;;28.52;9.93;;;;;;;;;;5006050;28;20058;-74
2022/05/03 11:21:36;;;;;;;24.52;10.02;;;;;;;;;;4987416;28;20542;-76
2022/05/03 11:24:04;;;;;;;20.17;9.07;;;;;;;;;;4988101;28;20407;-76
2022/05/03 11:26:31;;;;;;;15.77;9.02;;;;;;;;;;5000435;28;20081;-76
2022/05/03 11:28:59;;;;;;;26.50;9.75;;;;;;;;;;5008351;28;20077;-76
2022/05/03 11:31:26;;;;;;;17.45;9.15;;;;;;;;;;5007879;28;20499;-75
2022/05/03 11:33:58;;;;;;;22.95;8.88;;;;;;;;;;5008319;28;20136;-76
2022/05/03 11:36:27;;;;;;;23.42;8.68;;;;;;;;;;5005835;28;20135;-76
2022/05/03 11:38:55;;;;;;;15.73;8.23;;;;;;;;;;5006289;28;20108;-76
2022/05/03 11:41:26;;;;;;;22.08;8.77;;;;;;;;;;5001343;28;20072;-76
2022/05/03 11:43:53;;;;;;;15.80;7.70;;;;;;;;;;5007198;28;20396;-76
2022/05/03 11:46:21;;;;;;;14.80;7.50;;;;;;;;;;4997746;28;20157;-76
2022/05/03 11:49:01;;;;;;;21.23;7.90;;;;;;;;;;5006888;28;20120;-76
2022/05/03 11:57:20;;;;;;;16.98;7.90;;;;;;;;;;5005963;28;20081;-76
2022/05/03 11:59:49;;;;;;;32.45;10.68;;;;;;;;;;5004045;28;20076;-76
2022/05/03 12:02:18;;;;;;;14.52;7.95;;;;;;;;;;5005708;28;20053;-77
2022/05/03 12:05:02;;;;;;;18.98;7.93;;;;;;;;;;5005230;28;20065;-76
2022/05/03 12:07:30;;;;;;;14.55;7.40;;;;;;;;;;5000060;28;20172;-76
2022/05/03 12:09:57;;;;;;;19.58;8.23;;;;;;;;;;4980005;28;20364;-74
2022/05/03 12:12:44;;;;;;;27.60;8.52;;;;;;;;;;5003438;28;20058;-75
2022/05/03 12:15:16;;;;;;;22.73;8.98;;;;;;;;;;5008099;28;20088;-75
2022/05/03 12:17:52;;;;;;;23.77;9.90;;;;;;;;;;5018022;28;20499;-75
2022/05/03 12:20:19;;;;;;;15.93;9.65;;;;;;;;;;4990029;28;20050;-75
2022/05/03 12:23:08;;;;;;;21.77;8.65;;;;;;;;;;5006750;28;20132;-75
2022/05/03 12:25:36;;;;;;;15.32;7.43;;;;;;;;;;4990670;28;20054;-75
2022/05/03 12:28:07;;;;;;;23.13;8.30;;;;;;;;;;4975163;28;20113;-75
2022/05/03 12:30:35;;;;;;;13.00;8.57;;;;;;;;;;5006523;28;20136;-77
2022/05/03 12:33:04;;;;;;;16.48;7.68;;;;;;;;;;5001634;28;20168;-77
2022/05/03 12:35:38;;;;;;;12.88;7.07;;;;;;;;;;5006394;28;20049;-78
2022/05/03 12:38:15;;;;;;;16.15;7.97;;;;;;;;;;5002564;28;20252;-76
2022/05/03 12:40:52;;;;;;;13.48;7.25;;;;;;;;;;4988640;28;20086;-75
2022/05/03 12:43:23;;;;;;;15.13;7.53;;;;;;;;;;5002061;28;20073;-80
2022/05/03 12:45:57;;;;;;;11.43;7.68;;;;;;;;;;4991673;28;20038;-80
2022/05/03 12:48:29;;;;;;;12.55;8.00;;;;;;;;;;4991007;28;20078;-77
2022/05/03 12:50:57;;;;;;;15.25;7.53;;;;;;;;;;4998012;28;20049;-78
2022/05/03 12:53:30;;;;;;;16.58;7.65;;;;;;;;;;5005678;28;20050;-77
2022/05/03 12:58:21;;;;;;;13.38;7.82;;;;;;;;;;5008921;28;20334;-80
2022/05/03 12:58:46;;;;;;;12.35;6.80;;;;;;;;;;5010938;28;20081;-79
2022/05/03 13:01:13;;;;;;;17.77;6.53;;;;;;;;;;4997075;28;20049;-80
2022/05/03 13:03:41;;;;;;;13.73;5.40;;;;;;;;;;4990533;28;20054;-78
2022/05/03 13:06:09;;;;;;;10.43;4.80;;;;;;;;;;5007292;28;20510;-77
2022/05/03 13:08:36;;;;;;;10.93;5.03;;;;;;;;;;5024290;28;20080;-81
2022/05/03 13:11:03;;;;;;;13.50;5.45;;;;;;;;;;5016575;28;20548;-75
2022/05/03 13:13:31;;;;;;;16.67;5.32;;;;;;;;;;5005525;28;20070;-76
2022/05/03 13:15:58;;;;;;;15.07;5.60;;;;;;;;;;4990516;28;20144;-74
2022/05/03 13:18:25;;;;;;;27.58;5.85;;;;;;;;;;5004286;28;20054;-75
2022/05/03 13:20:54;;;;;;;15.05;5.20;;;;;;;;;;5004385;28;20867;-74
2022/05/03 13:23:21;;;;;;;15.82;6.13;;;;;;;;;;5009493;28;20572;-75
2022/05/03 13:29:12;;;;;;;13.13;5.63;;;;;;;;;;5049091;23;20465;-79
2022/05/03 13:31:39;;;;;;;8.40;5.10;;;;;;;;;;5019419;23;20081;31
2022/05/03 13:34:08;;;;;;;13.73;5.55;;;;;;;;;;5023234;28;20130;-78
2022/05/03 13:42:08;;;;;;;10.05;4.53;;;;;;;;;;5024941;28;20052;-78
2022/05/03 13:44:35;;;;;;;14.35;4.38;;;;;;;;;;5005929;28;20144;-78
2022/05/03 13:47:04;;;;;;;18.55;5.07;;;;;;;;;;5019044;28;20156;-79
2022/05/03 13:49:31;;;;;;;11.02;4.60;;;;;;;;;;5024802;28;20045;-78
2022/05/03 13:51:59;;;;;;;12.82;5.20;;;;;;;;;;5023877;28;20749;-78
2022/05/03 13:54:26;;;;;;;13.85;4.35;;;;;;;;;;5005133;28;20057;-74
2022/05/03 14:00:22;;;;;;;91.47;33.83;;;;;;;;;;5048254;23;20052;-80
2022/05/03 14:02:49;;;;;;;13.20;4.60;;;;;;;;;;5024441;28;20664;-79
2022/05/03 14:08:35;;;;;;;14.63;4.35;;;;;;;;;;5004688;28;20057;-75
2022/05/03 14:11:03;;;;;;;19.20;4.85;;;;;;;;;;5004266;28;20143;-75
2022/05/03 14:13:30;;;;;;;11.30;4.18;;;;;;;;;;4985392;28;20065;-75
2022/05/03 14:15:57;;;;;;;11.85;4.13;;;;;;;;;;5003853;28;20131;-75
2022/05/03 14:18:25;;;;;;;27.33;4.40;;;;;;;;;;4994997;28;20077;-75
2022/05/03 14:20:52;;;;;;;20.42;4.18;;;;;;;;;;5003806;28;20159;-75
2022/05/03 14:23:20;;;;;;;16.17;3.90;;;;;;;;;;5004342;28;20093;-75
2022/05/03 14:25:48;;;;;;;20.90;4.13;;;;;;;;;;4986514;28;20208;-75
2022/05/03 14:28:17;;;;;;;11.45;3.20;;;;;;;;;;5026084;23;20135;-79
2022/05/03 14:30:45;;;;;;;10.02;3.35;;;;;;;;;;5062474;28;20080;-80
2022/05/03 14:33:12;;;;;;;15.65;3.88;;;;;;;;;;5062804;28;20082;-81
2022/05/03 14:35:40;;;;;;;12.25;3.95;;;;;;;;;;5067278;28;20084;-82
2022/05/03 14:38:07;;;;;;;11.10;4.05;;;;;;;;;;5065538;28;20063;-80
2022/05/03 14:40:34;;;;;;;13.05;3.85;;;;;;;;;;5074315;22;20083;-82
2022/05/03 14:43:02;;;;;;;10.23;3.72;;;;;;;;;;5028510;28;20573;-80
2022/05/03 14:45:29;;;;;;;7.43;3.30;;;;;;;;;;5058136;28;20080;-81
2022/05/03 14:47:58;;;;;;;15.13;3.67;;;;;;;;;;5043730;28;20445;-82
2022/05/03 14:50:25;;;;;;;972.28;128.55;;;;;;;;;;5046008;28;20141;-80
2022/05/03 14:52:52;;;;;;;17.73;4.07;;;;;;;;;;5023354;28;20154;-83
2022/05/03 14:55:20;;;;;;;18.83;5.88;;;;;;;;;;5056398;28;20135;-82
2022/05/03 15:03:19;;;;;;;19.75;7.15;;;;;;;;;;5042360;28;20045;-87
2022/05/03 15:05:46;;;;;;;14.75;4.75;;;;;;;;;;5047711;28;20452;-86
2022/05/03 15:08:13;;;;;;;8.73;3.10;;;;;;;;;;5028225;28;20123;-84
2022/05/03 15:10:41;;;;;;;12.27;3.13;;;;;;;;;;5042211;28;20461;-86
2022/05/03 15:13:08;;;;;;;11.20;2.83;;;;;;;;;;5044609;28;20139;-84
2022/05/03 15:15:36;;;;;;;17.58;3.22;;;;;;;;;;5045498;28;20072;-84
2022/05/03 15:18:03;;;;;;;7.82;2.83;;;;;;;;;;5042305;28;20072;-86
2022/05/03 15:20:32;;;;;;;15.15;3.50;;;;;;;;;;5044946;28;20052;-85
2022/05/03 15:25:48;;;;;;;13.30;3.40;;;;;;;;;;5049786;28;20079;-85
2022/05/03 15:28:16;;;;;;;13.10;3.53;;;;;;;;;;5046884;28;20135;-76
2022/05/03 15:30:44;;;;;;;17.38;3.50;;;;;;;;;;5037961;28;20052;-77
2022/05/03 15:33:12;;;;;;;13.55;3.05;;;;;;;;;;5038513;28;20466;-76
2022/05/03 15:35:39;;;;;;;13.45;3.67;;;;;;;;;;5045814;28;20921;-76
2022/05/03 15:38:06;;;;;;;11.50;3.05;;;;;;;;;;5059017;28;20053;-76
2022/05/03 15:40:34;;;;;;;15.27;3.65;;;;;;;;;;5065927;28;20053;-77
2022/05/03 15:43:02;;;;;;;9.48;2.85;;;;;;;;;;5044920;28;20142;-76
2022/05/03 15:48:37;;;;;;;12.82;3.17;;;;;;;;;;4991529;28;20058;-75
2022/05/03 15:51:06;;;;;;;16.45;3.10;;;;;;;;;;4986216;28;20246;-74
2022/05/03 15:53:34;;;;;;;11.43;3.22;;;;;;;;;;4987862;28;20054;-76
2022/05/03 15:56:01;;;;;;;13.13;3.08;;;;;;;;;;4986879;28;20599;-76
2022/05/03 15:58:29;;;;;;;17.02;3.40;;;;;;;;;;4969350;28;20483;-76
2022/05/03 16:00:56;;;;;;;7.82;2.65;;;;;;;;;;4981556;28;20042;-78
2022/05/03 16:03:23;;;;;;;14.98;3.50;;;;;;;;;;4985661;28;20046;-77
2022/05/03 16:05:51;;;;;;;11.40;3.25;;;;;;;;;;4982163;28;20042;-76
2022/05/03 16:08:19;;;;;;;15.07;3.05;;;;;;;;;;4981737;28;20057;-77
2022/05/03 16:10:46;;;;;;;14.70;3.97;;;;;;;;;;4979160;28;20046;-79
2022/05/03 16:13:14;;;;;;;13.93;3.38;;;;;;;;;;4979700;28;20046;-80
2022/05/03 16:15:42;;;;;;;12.90;3.00;;;;;;;;;;4984681;28;20046;-80